sensor_id;sensor_type;location;lat;lon;timestamp;pressure;altitude;pressure_sealevel;temperature;humidity
42601;BME280;28229;48.856;9.088;2023-03-13T00:02:14;97480.28;;;6.77;83.50
42601;BME280;28229;48.856;9.088;2023-03-13T00:04:40;97480.47;;;6.82;83.24
42601;BME280;28229;48.856;9.088;2023-03-13T00:07:06;97475.47;;;6.74;83.91
42601;BME280;28229;48.856;9.088;2023-03-13T00:09:32;97469.25;;;6.69;84.40
42601;BME280;28229;48.856;9.088;2023-03-13T00:11:59;97480.69;;;6.74;84.62
42601;BME280;28229;48.856;9.088;2023-03-13T00:14:25;97468.63;;;6.73;84.56
42601;BME280;28229;48.856;9.088;2023-03-13T00:16:51;97471.84;;;6.75;84.77
42601;BME280;28229;48.856;9.088;2023-03-13T00:19:17;97465.81;;;6.81;84.64
42601;BME280;28229;48.856;9.088;2023-03-13T00:21:43;97460.97;;;6.85;84.65
42601;BME280;28229;48.856;9.088;2023-03-13T00:24:10;97465.56;;;6.90;84.34
42601;BME280;28229;48.856;9.088;2023-03-13T00:26:36;97456.91;;;6.96;84.22
42601;BME280;28229;48.856;9.088;2023-03-13T00:29:03;97451.06;;;7.00;84.20
42601;BME280;28229;48.856;9.088;2023-03-13T00:31:30;97452.06;;;7.06;83.96
42601;BME280;28229;48.856;9.088;2023-03-13T00:33:59;97455.28;;;7.01;84.21
42601;BME280;28229;48.856;9.088;2023-03-13T00:36:31;97450.44;;;7.12;83.57
42601;BME280;28229;48.856;9.088;2023-03-13T00:38:58;97444.78;;;7.15;83.52
42601;BME280;28229;48.856;9.088;2023-03-13T00:41:27;97443.97;;;7.14;83.58
42601;BME280;28229;48.856;9.088;2023-03-13T00:43:53;97442.78;;;7.17;83.48
42601;BME280;28229;48.856;9.088;2023-03-13T00:46:22;97439.78;;;7.13;83.40
42601;BME280;28229;48.856;9.088;2023-03-13T00:48:49;97431.28;;;7.18;83.28
42601;BME280;28229;48.856;9.088;2023-03-13T00:51:17;97433.50;;;7.14;83.61
42601;BME280;28229;48.856;9.088;2023-03-13T00:53:45;97431.88;;;7.20;83.13
42601;BME280;28229;48.856;9.088;2023-03-13T00:56:13;97427.84;;;7.24;82.90
42601;BME280;28229;48.856;9.088;2023-03-13T00:58:41;97425.63;;;7.28;82.91
42601;BME280;28229;48.856;9.088;2023-03-13T01:01:13;97419.16;;;7.30;82.92
42601;BME280;28229;48.856;9.088;2023-03-13T01:03:42;97417.13;;;7.32;82.85
42601;BME280;28229;48.856;9.088;2023-03-13T01:06:14;97416.13;;;7.33;82.79
42601;BME280;28229;48.856;9.088;2023-03-13T01:08:40;97416.69;;;7.42;82.24
42601;BME280;28229;48.856;9.088;2023-03-13T01:11:09;97408.28;;;7.33;82.74
42601;BME280;28229;48.856;9.088;2023-03-13T01:13:36;97406.03;;;7.37;82.32
42601;BME280;28229;48.856;9.088;2023-03-13T01:16:11;97399.19;;;7.36;82.50
42601;BME280;28229;48.856;9.088;2023-03-13T01:18:40;97392.72;;;7.45;82.11
42601;BME280;28229;48.856;9.088;2023-03-13T01:21:07;97397.97;;;7.45;81.98
42601;BME280;28229;48.856;9.088;2023-03-13T01:23:34;97384.88;;;7.45;81.94
42601;BME280;28229;48.856;9.088;2023-03-13T01:26:00;97373.78;;;7.43;82.19
42601;BME280;28229;48.856;9.088;2023-03-13T01:28:27;97375.03;;;7.40;82.23
42601;BME280;28229;48.856;9.088;2023-03-13T01:30:53;97371.16;;;7.43;82.28
42601;BME280;28229;48.856;9.088;2023-03-13T01:33:20;97365.72;;;7.44;82.29
42601;BME280;28229;48.856;9.088;2023-03-13T01:35:47;97362.91;;;7.46;81.94
42601;BME280;28229;48.856;9.088;2023-03-13T01:38:13;97360.50;;;7.44;82.26
42601;BME280;28229;48.856;9.088;2023-03-13T01:40:45;97355.44;;;7.50;81.89
42601;BME280;28229;48.856;9.088;2023-03-13T01:43:22;97357.47;;;7.48;81.79
42601;BME280;28229;48.856;9.088;2023-03-13T01:49:17;97339.53;;;7.51;81.66
42601;BME280;28229;48.856;9.088;2023-03-13T01:52:14;97338.25;;;7.60;81.08
42601;BME280;28229;48.856;9.088;2023-03-13T01:55:00;97326.94;;;7.67;80.60
42601;BME280;28229;48.856;9.088;2023-03-13T01:57:35;97322.50;;;7.67;80.60
42601;BME280;28229;48.856;9.088;2023-03-13T02:00:08;97318.81;;;7.75;80.22
42601;BME280;28229;48.856;9.088;2023-03-13T02:02:42;97312.16;;;7.79;79.79
42601;BME280;28229;48.856;9.088;2023-03-13T02:05:10;97311.97;;;7.74;80.21
42601;BME280;28229;48.856;9.088;2023-03-13T02:07:40;97307.91;;;7.78;80.01
42601;BME280;28229;48.856;9.088;2023-03-13T02:10:10;97304.13;;;7.74;80.33
42601;BME280;28229;48.856;9.088;2023-03-13T02:12:39;97298.69;;;7.75;79.95
42601;BME280;28229;48.856;9.088;2023-03-13T02:15:19;97300.31;;;7.70;80.34
42601;BME280;28229;48.856;9.088;2023-03-13T02:17:48;97298.72;;;7.69;80.64
42601;BME280;28229;48.856;9.088;2023-03-13T02:20:17;97292.28;;;7.65;80.82
42601;BME280;28229;48.856;9.088;2023-03-13T02:28:08;97294.91;;;7.65;80.98
42601;BME280;28229;48.856;9.088;2023-03-13T02:30:41;97294.69;;;7.66;80.93
42601;BME280;28229;48.856;9.088;2023-03-13T02:33:12;97292.03;;;7.73;80.88
42601;BME280;28229;48.856;9.088;2023-03-13T02:35:40;97283.59;;;7.71;80.60
42601;BME280;28229;48.856;9.088;2023-03-13T02:38:15;97281.56;;;7.73;80.93
42601;BME280;28229;48.856;9.088;2023-03-13T02:40:45;97266.84;;;7.72;80.90
42601;BME280;28229;48.856;9.088;2023-03-13T02:43:22;97252.34;;;7.76;80.77
42601;BME280;28229;48.856;9.088;2023-03-13T02:46:20;97253.63;;;7.67;81.53
42601;BME280;28229;48.856;9.088;2023-03-13T02:48:54;97248.25;;;7.80;80.96
42601;BME280;28229;48.856;9.088;2023-03-13T02:51:34;97243.91;;;7.74;81.26
42601;BME280;28229;48.856;9.088;2023-03-13T02:54:06;97228.09;;;7.80;81.19
42601;BME280;28229;48.856;9.088;2023-03-13T02:56:36;97219.03;;;7.83;81.43
42601;BME280;28229;48.856;9.088;2023-03-13T02:59:04;97220.34;;;7.92;81.48
42601;BME280;28229;48.856;9.088;2023-03-13T03:01:32;97212.84;;;8.14;81.22
42601;BME280;28229;48.856;9.088;2023-03-13T03:03:59;97208.97;;;8.35;80.58
42601;BME280;28229;48.856;9.088;2023-03-13T03:06:25;97217.44;;;8.56;79.86
42601;BME280;28229;48.856;9.088;2023-03-13T03:08:51;97218.53;;;8.79;79.31
42601;BME280;28229;48.856;9.088;2023-03-13T03:11:18;97212.97;;;8.87;79.18
42601;BME280;28229;48.856;9.088;2023-03-13T03:13:47;97207.56;;;9.00;79.17
42601;BME280;28229;48.856;9.088;2023-03-13T03:16:16;97194.78;;;9.04;79.59
42601;BME280;28229;48.856;9.088;2023-03-13T03:18:50;97204.81;;;9.07;79.41
42601;BME280;28229;48.856;9.088;2023-03-13T03:21:16;97198.81;;;9.18;79.20
42601;BME280;28229;48.856;9.088;2023-03-13T03:23:43;97194.34;;;9.19;79.06
42601;BME280;28229;48.856;9.088;2023-03-13T03:26:09;97195.34;;;9.18;79.34
42601;BME280;28229;48.856;9.088;2023-03-13T03:28:35;97201.66;;;9.28;79.44
42601;BME280;28229;48.856;9.088;2023-03-13T03:31:08;97194.47;;;9.24;80.12
42601;BME280;28229;48.856;9.088;2023-03-13T03:33:36;97194.59;;;9.29;79.38
42601;BME280;28229;48.856;9.088;2023-03-13T03:36:11;97196.19;;;9.30;79.64
42601;BME280;28229;48.856;9.088;2023-03-13T03:38:39;97195.16;;;9.31;79.83
42601;BME280;28229;48.856;9.088;2023-03-13T03:41:07;97195.59;;;9.28;80.11
42601;BME280;28229;48.856;9.088;2023-03-13T03:43:34;97183.63;;;9.20;80.74
42601;BME280;28229;48.856;9.088;2023-03-13T03:46:01;97184.88;;;9.18;80.95
42601;BME280;28229;48.856;9.088;2023-03-13T03:48:28;97192.72;;;9.18;80.97
42601;BME280;28229;48.856;9.088;2023-03-13T03:50:55;97181.88;;;9.14;81.30
42601;BME280;28229;48.856;9.088;2023-03-13T03:53:22;97181.34;;;9.24;81.62
42601;BME280;28229;48.856;9.088;2023-03-13T03:55:49;97183.97;;;9.24;82.08
42601;BME280;28229;48.856;9.088;2023-03-13T03:58:16;97177.47;;;9.38;82.08
42601;BME280;28229;48.856;9.088;2023-03-13T04:00:58;97180.44;;;9.42;82.60
42601;BME280;28229;48.856;9.088;2023-03-13T04:03:24;97167.41;;;9.59;83.01
42601;BME280;28229;48.856;9.088;2023-03-13T04:05:51;97172.78;;;9.64;83.02
42601;BME280;28229;48.856;9.088;2023-03-13T04:08:17;97165.25;;;9.79;82.79
42601;BME280;28229;48.856;9.088;2023-03-13T04:10:43;97163.84;;;9.88;82.72
42601;BME280;28229;48.856;9.088;2023-03-13T04:13:10;97157.09;;;9.93;82.85
42601;BME280;28229;48.856;9.088;2023-03-13T04:15:38;97159.72;;;9.93;83.46
42601;BME280;28229;48.856;9.088;2023-03-13T04:18:05;97151.94;;;9.98;84.26
42601;BME280;28229;48.856;9.088;2023-03-13T04:20:31;97161.06;;;10.07;85.03
42601;BME280;28229;48.856;9.088;2023-03-13T04:22:57;97163.34;;;10.15;85.45
42601;BME280;28229;48.856;9.088;2023-03-13T04:25:24;97146.66;;;10.21;85.24
42601;BME280;28229;48.856;9.088;2023-03-13T04:27:54;97143.63;;;10.29;85.11
42601;BME280;28229;48.856;9.088;2023-03-13T04:30:23;97139.63;;;10.39;84.83
42601;BME280;28229;48.856;9.088;2023-03-13T04:33:17;97130.41;;;10.53;84.49
42601;BME280;28229;48.856;9.088;2023-03-13T04:36:05;97145.16;;;10.54;84.18
42601;BME280;28229;48.856;9.088;2023-03-13T04:38:46;97140.47;;;10.56;84.33
42601;BME280;28229;48.856;9.088;2023-03-13T04:41:33;97147.88;;;10.59;84.29
42601;BME280;28229;48.856;9.088;2023-03-13T04:44:20;97144.19;;;10.60;84.93
42601;BME280;28229;48.856;9.088;2023-03-13T04:47:03;97146.38;;;10.63;84.93
42601;BME280;28229;48.856;9.088;2023-03-13T04:50:09;97141.56;;;10.60;85.48
42601;BME280;28229;48.856;9.088;2023-03-13T04:52:47;97141.00;;;10.58;85.83
42601;BME280;28229;48.856;9.088;2023-03-13T04:55:24;97136.56;;;10.59;86.14
42601;BME280;28229;48.856;9.088;2023-03-13T04:58:19;97128.34;;;10.55;86.39
42601;BME280;28229;48.856;9.088;2023-03-13T05:01:05;97134.97;;;10.58;86.32
42601;BME280;28229;48.856;9.088;2023-03-13T05:03:50;97142.75;;;10.53;87.03
42601;BME280;28229;48.856;9.088;2023-03-13T05:06:54;97132.56;;;10.56;87.07
42601;BME280;28229;48.856;9.088;2023-03-13T05:09:36;97126.28;;;10.57;86.89
42601;BME280;28229;48.856;9.088;2023-03-13T05:12:34;97125.22;;;10.58;87.02
42601;BME280;28229;48.856;9.088;2023-03-13T05:15:33;97140.78;;;10.60;86.56
42601;BME280;28229;48.856;9.088;2023-03-13T05:18:21;97138.94;;;10.60;86.86
42601;BME280;28229;48.856;9.088;2023-03-13T05:21:01;97137.91;;;10.61;86.63
42601;BME280;28229;48.856;9.088;2023-03-13T05:23:27;97138.00;;;10.66;86.04
42601;BME280;28229;48.856;9.088;2023-03-13T05:26:16;97148.06;;;10.70;85.77
42601;BME280;28229;48.856;9.088;2023-03-13T05:29:02;97136.97;;;10.67;85.90
42601;BME280;28229;48.856;9.088;2023-03-13T05:31:44;97133.06;;;10.70;85.82
42601;BME280;28229;48.856;9.088;2023-03-13T05:34:32;97132.28;;;10.70;85.93
42601;BME280;28229;48.856;9.088;2023-03-13T05:37:18;97116.50;;;10.70;85.75
42601;BME280;28229;48.856;9.088;2023-03-13T05:40:05;97116.00;;;10.73;85.45
42601;BME280;28229;48.856;9.088;2023-03-13T05:42:40;97117.47;;;10.80;85.08
42601;BME280;28229;48.856;9.088;2023-03-13T05:45:19;97119.50;;;10.78;85.23
42601;BME280;28229;48.856;9.088;2023-03-13T05:48:10;97129.41;;;10.88;84.63
42601;BME280;28229;48.856;9.088;2023-03-13T05:50:55;97132.06;;;10.88;84.59
42601;BME280;28229;48.856;9.088;2023-03-13T05:53:44;97118.34;;;10.86;84.83
42601;BME280;28229;48.856;9.088;2023-03-13T05:56:29;97109.88;;;10.84;84.81
42601;BME280;28229;48.856;9.088;2023-03-13T05:59:08;97108.84;;;10.85;85.24
42601;BME280;28229;48.856;9.088;2023-03-13T06:02:10;97108.38;;;10.88;85.09
42601;BME280;28229;48.856;9.088;2023-03-13T06:04:41;97114.56;;;10.82;85.55
42601;BME280;28229;48.856;9.088;2023-03-13T06:07:07;97126.22;;;10.86;85.44
42601;BME280;28229;48.856;9.088;2023-03-13T06:09:33;97122.53;;;10.87;85.08
42601;BME280;28229;48.856;9.088;2023-03-13T06:11:59;97122.53;;;10.87;84.81
42601;BME280;28229;48.856;9.088;2023-03-13T06:14:29;97123.13;;;10.89;85.03
42601;BME280;28229;48.856;9.088;2023-03-13T06:17:25;97116.09;;;10.95;84.41
42601;BME280;28229;48.856;9.088;2023-03-13T06:19:51;97115.06;;;10.96;84.71
42601;BME280;28229;48.856;9.088;2023-03-13T06:22:17;97111.72;;;11.00;84.79
42601;BME280;28229;48.856;9.088;2023-03-13T06:24:43;97123.91;;;11.07;84.06
42601;BME280;28229;48.856;9.088;2023-03-13T06:27:14;97110.50;;;11.08;84.08
42601;BME280;28229;48.856;9.088;2023-03-13T06:29:40;97115.53;;;11.10;84.30
42601;BME280;28229;48.856;9.088;2023-03-13T06:32:08;97113.78;;;11.15;83.67
42601;BME280;28229;48.856;9.088;2023-03-13T06:34:35;97110.59;;;11.13;84.04
42601;BME280;28229;48.856;9.088;2023-03-13T06:37:01;97116.16;;;11.17;84.36
42601;BME280;28229;48.856;9.088;2023-03-13T06:39:27;97106.75;;;11.21;84.32
42601;BME280;28229;48.856;9.088;2023-03-13T06:41:54;97115.53;;;11.27;83.84
42601;BME280;28229;48.856;9.088;2023-03-13T06:44:20;97110.28;;;11.27;83.88
42601;BME280;28229;48.856;9.088;2023-03-13T06:46:46;97112.41;;;11.30;84.24
42601;BME280;28229;48.856;9.088;2023-03-13T06:49:12;97132.19;;;11.32;84.13
42601;BME280;28229;48.856;9.088;2023-03-13T06:51:38;97126.84;;;11.27;84.49
42601;BME280;28229;48.856;9.088;2023-03-13T06:54:04;97129.56;;;11.32;84.59
42601;BME280;28229;48.856;9.088;2023-03-13T06:56:31;97137.22;;;11.34;84.56
42601;BME280;28229;48.856;9.088;2023-03-13T06:58:57;97134.53;;;11.29;85.01
42601;BME280;28229;48.856;9.088;2023-03-13T07:01:23;97138.03;;;11.34;84.93
42601;BME280;28229;48.856;9.088;2023-03-13T07:03:49;97139.13;;;11.38;85.26
42601;BME280;28229;48.856;9.088;2023-03-13T07:06:16;97133.31;;;11.36;85.42
42601;BME280;28229;48.856;9.088;2023-03-13T07:08:43;97133.78;;;11.33;85.58
42601;BME280;28229;48.856;9.088;2023-03-13T07:11:11;97130.19;;;11.39;85.30
42601;BME280;28229;48.856;9.088;2023-03-13T07:13:38;97137.03;;;11.40;85.81
42601;BME280;28229;48.856;9.088;2023-03-13T07:16:09;97127.00;;;11.37;85.58
42601;BME280;28229;48.856;9.088;2023-03-13T07:18:37;97141.75;;;11.38;86.18
42601;BME280;28229;48.856;9.088;2023-03-13T07:21:04;97133.53;;;11.35;86.36
42601;BME280;28229;48.856;9.088;2023-03-13T07:23:32;97146.63;;;11.30;86.95
42601;BME280;28229;48.856;9.088;2023-03-13T07:26:01;97135.47;;;11.39;86.41
42601;BME280;28229;48.856;9.088;2023-03-13T07:28:28;97127.31;;;11.41;86.43
42601;BME280;28229;48.856;9.088;2023-03-13T07:31:07;97129.38;;;11.39;86.40
42601;BME280;28229;48.856;9.088;2023-03-13T07:33:33;97129.69;;;11.42;86.28
42601;BME280;28229;48.856;9.088;2023-03-13T07:36:00;97113.34;;;11.40;86.04
42601;BME280;28229;48.856;9.088;2023-03-13T07:38:26;97111.22;;;11.37;86.38
42601;BME280;28229;48.856;9.088;2023-03-13T07:40:54;97117.66;;;11.47;86.18
42601;BME280;28229;48.856;9.088;2023-03-13T07:43:21;97115.56;;;11.49;86.03
42601;BME280;28229;48.856;9.088;2023-03-13T07:45:57;97107.66;;;11.49;86.13
42601;BME280;28229;48.856;9.088;2023-03-13T07:48:28;97107.19;;;11.52;86.18
42601;BME280;28229;48.856;9.088;2023-03-13T07:50:55;97108.69;;;11.48;86.23
42601;BME280;28229;48.856;9.088;2023-03-13T07:53:21;97102.22;;;11.55;86.03
42601;BME280;28229;48.856;9.088;2023-03-13T07:55:55;97081.72;;;11.57;85.73
42601;BME280;28229;48.856;9.088;2023-03-13T07:58:23;97087.81;;;11.63;85.65
42601;BME280;28229;48.856;9.088;2023-03-13T08:00:50;97100.59;;;11.71;85.19
42601;BME280;28229;48.856;9.088;2023-03-13T08:03:16;97086.34;;;11.72;85.44
42601;BME280;28229;48.856;9.088;2023-03-13T08:05:43;97088.50;;;11.75;84.88
42601;BME280;28229;48.856;9.088;2023-03-13T08:08:10;97080.91;;;11.79;84.76
42601;BME280;28229;48.856;9.088;2023-03-13T08:10:38;97085.19;;;11.85;84.61
42601;BME280;28229;48.856;9.088;2023-03-13T08:13:04;97066.00;;;11.90;84.19
42601;BME280;28229;48.856;9.088;2023-03-13T08:15:30;97062.41;;;11.96;83.81
42601;BME280;28229;48.856;9.088;2023-03-13T08:17:57;97065.16;;;12.06;83.19
42601;BME280;28229;48.856;9.088;2023-03-13T08:20:23;97050.47;;;12.15;82.67
42601;BME280;28229;48.856;9.088;2023-03-13T08:22:49;97060.88;;;12.27;82.28
42601;BME280;28229;48.856;9.088;2023-03-13T08:25:15;97064.97;;;12.40;82.16
42601;BME280;28229;48.856;9.088;2023-03-13T08:27:42;97056.56;;;12.43;80.92
42601;BME280;28229;48.856;9.088;2023-03-13T08:30:08;97064.56;;;12.53;80.45
42601;BME280;28229;48.856;9.088;2023-03-13T08:32:35;97063.75;;;12.53;80.64
42601;BME280;28229;48.856;9.088;2023-03-13T08:35:02;97061.16;;;12.58;81.33
42601;BME280;28229;48.856;9.088;2023-03-13T08:37:29;97058.28;;;12.60;81.31
42601;BME280;28229;48.856;9.088;2023-03-13T08:39:55;97061.53;;;12.72;80.60
42601;BME280;28229;48.856;9.088;2023-03-13T08:42:22;97071.06;;;12.73;80.17
42601;BME280;28229;48.856;9.088;2023-03-13T08:44:48;97073.47;;;12.80;80.03
42601;BME280;28229;48.856;9.088;2023-03-13T08:47:15;97058.19;;;12.82;79.12
42601;BME280;28229;48.856;9.088;2023-03-13T08:49:43;97061.63;;;12.82;79.14
42601;BME280;28229;48.856;9.088;2023-03-13T08:52:10;97061.13;;;12.90;78.16
42601;BME280;28229;48.856;9.088;2023-03-13T08:54:36;97070.66;;;12.91;78.32
42601;BME280;28229;48.856;9.088;2023-03-13T08:57:02;97063.81;;;12.95;78.13
42601;BME280;28229;48.856;9.088;2023-03-13T08:59:28;97052.00;;;13.03;77.86
42601;BME280;28229;48.856;9.088;2023-03-13T09:01:55;97057.56;;;13.07;77.66
42601;BME280;28229;48.856;9.088;2023-03-13T09:04:21;97054.19;;;13.17;77.68
42601;BME280;28229;48.856;9.088;2023-03-13T09:06:47;97056.03;;;13.16;77.57
42601;BME280;28229;48.856;9.088;2023-03-13T09:09:13;97055.25;;;13.21;76.31
42601;BME280;28229;48.856;9.088;2023-03-13T09:11:39;97050.81;;;13.26;76.82
42601;BME280;28229;48.856;9.088;2023-03-13T09:14:07;97056.34;;;13.25;77.00
42601;BME280;28229;48.856;9.088;2023-03-13T09:16:34;97049.31;;;13.36;76.80
42601;BME280;28229;48.856;9.088;2023-03-13T09:19:00;97041.63;;;13.34;74.93
42601;BME280;28229;48.856;9.088;2023-03-13T09:21:31;97042.47;;;13.45;75.49
42601;BME280;28229;48.856;9.088;2023-03-13T09:23:58;97037.78;;;13.57;74.87
42601;BME280;28229;48.856;9.088;2023-03-13T09:26:25;97040.22;;;13.74;74.84
42601;BME280;28229;48.856;9.088;2023-03-13T09:28:53;97058.53;;;13.96;73.61
42601;BME280;28229;48.856;9.088;2023-03-13T09:31:21;97054.84;;;14.07;73.06
42601;BME280;28229;48.856;9.088;2023-03-13T09:33:49;97048.00;;;14.06;71.31
42601;BME280;28229;48.856;9.088;2023-03-13T09:36:16;97063.31;;;14.04;71.88
42601;BME280;28229;48.856;9.088;2023-03-13T09:38:42;97066.47;;;13.96;70.94
42601;BME280;28229;48.856;9.088;2023-03-13T09:49:56;97056.50;;;14.44;70.22
42601;BME280;28229;48.856;9.088;2023-03-13T09:52:27;97043.84;;;14.77;68.61
42601;BME280;28229;48.856;9.088;2023-03-13T09:54:57;97035.09;;;14.97;66.96
42601;BME280;28229;48.856;9.088;2023-03-13T09:57:54;97024.47;;;15.02;68.15
42601;BME280;28229;48.856;9.088;2023-03-13T10:05:25;97004.88;;;15.03;67.02
42601;BME280;28229;48.856;9.088;2023-03-13T10:07:57;97021.03;;;15.07;66.79
42601;BME280;28229;48.856;9.088;2023-03-13T10:13:33;97014.19;;;14.85;65.86
42601;BME280;28229;48.856;9.088;2023-03-13T10:16:12;97011.78;;;15.04;66.17
42601;BME280;28229;48.856;9.088;2023-03-13T10:18:43;97020.44;;;15.31;65.86
42601;BME280;28229;48.856;9.088;2023-03-13T10:21:17;97015.88;;;15.47;64.71
42601;BME280;28229;48.856;9.088;2023-03-13T10:26:48;97009.69;;;15.67;64.52
42601;BME280;28229;48.856;9.088;2023-03-13T10:29:26;97011.31;;;15.63;65.56
42601;BME280;28229;48.856;9.088;2023-03-13T10:32:01;97020.34;;;15.56;64.55
42601;BME280;28229;48.856;9.088;2023-03-13T10:34:43;97003.94;;;15.49;65.43
42601;BME280;28229;48.856;9.088;2023-03-13T10:37:13;97000.72;;;15.57;65.98
42601;BME280;28229;48.856;9.088;2023-03-13T10:39:40;96990.59;;;15.65;65.04
42601;BME280;28229;48.856;9.088;2023-03-13T10:42:15;96999.63;;;15.64;65.56
42601;BME280;28229;48.856;9.088;2023-03-13T10:44:43;96997.78;;;15.64;65.96
42601;BME280;28229;48.856;9.088;2023-03-13T10:47:12;96997.25;;;15.62;65.51
42601;BME280;28229;48.856;9.088;2023-03-13T10:49:50;96996.91;;;15.74;64.73
42601;BME280;28229;48.856;9.088;2023-03-13T10:52:45;96996.09;;;15.89;64.82
42601;BME280;28229;48.856;9.088;2023-03-13T10:55:16;96978.28;;;15.94;63.06
42601;BME280;28229;48.856;9.088;2023-03-13T10:57:59;96982.03;;;16.28;64.44
42601;BME280;28229;48.856;9.088;2023-03-13T11:00:34;96965.28;;;16.32;61.50
42601;BME280;28229;48.856;9.088;2023-03-13T11:03:05;96970.53;;;16.37;61.82
42601;BME280;28229;48.856;9.088;2023-03-13T11:05:40;96982.84;;;16.23;61.54
42601;BME280;28229;48.856;9.088;2023-03-13T11:08:24;96989.28;;;16.17;62.02
42601;BME280;28229;48.856;9.088;2023-03-13T11:10:56;96977.06;;;16.16;61.99
42601;BME280;28229;48.856;9.088;2023-03-13T11:16:02;96975.28;;;16.06;61.23
42601;BME280;28229;48.856;9.088;2023-03-13T11:27:22;96947.50;;;17.16;58.78
42601;BME280;28229;48.856;9.088;2023-03-13T11:35:33;96926.63;;;17.90;56.03
42601;BME280;28229;48.856;9.088;2023-03-13T11:38:51;96920.81;;;18.02;55.41
42601;BME280;28229;48.856;9.088;2023-03-13T11:50:06;96881.13;;;18.66;52.21
42601;BME280;28229;48.856;9.088;2023-03-13T12:01:37;96858.16;;;19.12;52.82
42601;BME280;28229;48.856;9.088;2023-03-13T12:04:14;96850.16;;;19.12;50.81
42601;BME280;28229;48.856;9.088;2023-03-13T12:06:48;96844.81;;;19.12;50.06
42601;BME280;28229;48.856;9.088;2023-03-13T12:09:22;96835.59;;;19.32;51.05
42601;BME280;28229;48.856;9.088;2023-03-13T12:12:01;96836.41;;;19.55;49.61
42601;BME280;28229;48.856;9.088;2023-03-13T12:14:46;96823.06;;;19.55;49.97
42601;BME280;28229;48.856;9.088;2023-03-13T12:17:38;96816.88;;;19.46;50.22
42601;BME280;28229;48.856;9.088;2023-03-13T12:20:16;96804.75;;;19.62;49.41
42601;BME280;28229;48.856;9.088;2023-03-13T12:23:01;96795.38;;;19.65;50.44
42601;BME280;28229;48.856;9.088;2023-03-13T12:25:44;96781.91;;;19.47;48.66
42601;BME280;28229;48.856;9.088;2023-03-13T12:28:26;96769.16;;;19.81;49.47
42601;BME280;28229;48.856;9.088;2023-03-13T12:33:33;96761.16;;;20.21;48.14
42601;BME280;28229;48.856;9.088;2023-03-13T12:36:07;96753.69;;;20.00;48.25
42601;BME280;28229;48.856;9.088;2023-03-13T12:38:54;96752.16;;;19.76;48.73
42601;BME280;28229;48.856;9.088;2023-03-13T12:41:27;96741.72;;;19.66;48.89
42601;BME280;28229;48.856;9.088;2023-03-13T12:43:55;96730.19;;;19.80;47.67
42601;BME280;28229;48.856;9.088;2023-03-13T13:00:18;96690.50;;;20.27;46.25
42601;BME280;28229;48.856;9.088;2023-03-13T13:02:45;96666.31;;;20.32;45.98
42601;BME280;28229;48.856;9.088;2023-03-13T13:05:20;96670.41;;;20.38;45.92
42601;BME280;28229;48.856;9.088;2023-03-13T13:07:56;96658.94;;;20.55;46.57
42601;BME280;28229;48.856;9.088;2023-03-13T13:10:26;96658.38;;;20.67;46.09
42601;BME280;28229;48.856;9.088;2023-03-13T13:15:58;96652.50;;;20.47;45.43
42601;BME280;28229;48.856;9.088;2023-03-13T13:18:27;96648.31;;;20.64;46.44
42601;BME280;28229;48.856;9.088;2023-03-13T13:23:38;96627.66;;;20.21;45.36
42601;BME280;28229;48.856;9.088;2023-03-13T13:28:52;96604.03;;;20.05;46.49
42601;BME280;28229;48.856;9.088;2023-03-13T13:37:00;96593.84;;;19.99;44.60
42601;BME280;28229;48.856;9.088;2023-03-13T13:39:43;96575.97;;;20.08;43.97
42601;BME280;28229;48.856;9.088;2023-03-13T13:47:47;96567.16;;;20.25;45.32
42601;BME280;28229;48.856;9.088;2023-03-13T13:50:25;96559.47;;;20.14;44.70
42601;BME280;28229;48.856;9.088;2023-03-13T13:52:52;96557.75;;;20.19;44.19
42601;BME280;28229;48.856;9.088;2023-03-13T13:55:41;96565.31;;;20.25;43.38
42601;BME280;28229;48.856;9.088;2023-03-13T13:58:17;96553.34;;;20.23;44.05
42601;BME280;28229;48.856;9.088;2023-03-13T14:01:00;96549.41;;;20.11;44.36
42601;BME280;28229;48.856;9.088;2023-03-13T14:03:29;96544.56;;;20.13;44.73
42601;BME280;28229;48.856;9.088;2023-03-13T14:06:27;96536.84;;;20.21;44.84
42601;BME280;28229;48.856;9.088;2023-03-13T14:09:10;96529.47;;;20.35;45.29
42601;BME280;28229;48.856;9.088;2023-03-13T14:11:39;96517.38;;;20.46;44.81
42601;BME280;28229;48.856;9.088;2023-03-13T14:14:09;96520.69;;;20.52;44.56
42601;BME280;28229;48.856;9.088;2023-03-13T14:16:36;96514.53;;;20.51;44.86
42601;BME280;28229;48.856;9.088;2023-03-13T14:19:03;96519.41;;;20.49;45.02
42601;BME280;28229;48.856;9.088;2023-03-13T14:21:29;96509.84;;;20.57;45.14
42601;BME280;28229;48.856;9.088;2023-03-13T14:23:55;96499.75;;;20.80;44.99
42601;BME280;28229;48.856;9.088;2023-03-13T14:29:00;96486.50;;;20.92;43.69
42601;BME280;28229;48.856;9.088;2023-03-13T14:31:35;96477.88;;;21.25;43.50
42601;BME280;28229;48.856;9.088;2023-03-13T14:34:11;96479.75;;;21.63;43.31
42601;BME280;28229;48.856;9.088;2023-03-13T14:39:20;96463.63;;;21.72;41.05
42601;BME280;28229;48.856;9.088;2023-03-13T14:41:48;96458.03;;;21.86;41.56
42601;BME280;28229;48.856;9.088;2023-03-13T14:44:23;96459.25;;;22.10;41.23
42601;BME280;28229;48.856;9.088;2023-03-13T14:46:56;96449.31;;;22.31;41.60
42601;BME280;28229;48.856;9.088;2023-03-13T14:49:26;96428.75;;;22.23;40.18
42601;BME280;28229;48.856;9.088;2023-03-13T14:52:12;96429.19;;;22.25;40.31
42601;BME280;28229;48.856;9.088;2023-03-13T14:57:20;96415.44;;;22.48;39.74
42601;BME280;28229;48.856;9.088;2023-03-13T14:59:48;96406.91;;;22.33;39.75
42601;BME280;28229;48.856;9.088;2023-03-13T15:02:29;96399.69;;;22.34;40.21
42601;BME280;28229;48.856;9.088;2023-03-13T15:04:59;96400.06;;;22.57;39.48
42601;BME280;28229;48.856;9.088;2023-03-13T15:07:34;96384.28;;;22.43;39.41
42601;BME280;28229;48.856;9.088;2023-03-13T15:10:24;96369.41;;;22.33;38.87
42601;BME280;28229;48.856;9.088;2023-03-13T15:12:50;96360.91;;;22.31;39.58
42601;BME280;28229;48.856;9.088;2023-03-13T15:15:17;96356.81;;;22.34;39.84
42601;BME280;28229;48.856;9.088;2023-03-13T15:17:43;96347.66;;;22.01;39.25